createdAt,value
2018-11-04T00:00:00.866Z," 3.51"
2018-11-04T00:04:57.645Z," 3.51"
2018-11-04T00:09:53.131Z," 3.37"
2018-11-04T00:14:49.588Z," 3.41"
2018-11-04T00:19:45.081Z," 3.28"
2018-11-04T00:24:41.469Z," 3.34"
2018-11-04T00:29:36.876Z," 3.31"
2018-11-04T00:34:33.616Z," 3.34"
2018-11-04T00:39:28.859Z," 3.29"
2018-11-04T00:44:25.693Z," 3.25"
2018-11-04T00:49:21.667Z," 3.22"
2018-11-04T00:54:17.313Z," 3.22"
2018-11-04T00:59:12.906Z," 3.25"
2018-11-04T01:04:08.465Z," 3.13"
2018-11-04T01:09:04.083Z," 3.08"
2018-11-04T01:13:59.609Z," 3.05"
2018-11-04T01:18:55.249Z," 3.05"
2018-11-04T01:23:50.784Z," 2.95"
2018-11-04T01:28:46.589Z," 3.07"
2018-11-04T01:33:43.490Z," 3.04"
2018-11-04T01:38:39.745Z," 2.87"
2018-11-04T01:43:35.068Z," 2.95"
2018-11-04T01:48:30.811Z," 2.92"
2018-11-04T01:53:27.389Z," 2.83"
2018-11-04T01:58:22.768Z," 2.90"
2018-11-04T02:03:18.183Z," 2.93"
2018-11-04T02:08:14.152Z," 2.85"
2018-11-04T02:13:09.725Z," 2.85"
2018-11-04T02:18:06.319Z," 2.90"
2018-11-04T02:23:01.746Z," 2.93"
2018-11-04T02:27:57.305Z," 2.95"
2018-11-04T02:32:52.900Z," 3.05"
2018-11-04T02:37:48.500Z," 3.10"
2018-11-04T02:42:44.361Z," 3.04"
2018-11-04T02:47:40.160Z," 3.05"
2018-11-04T02:52:36.544Z," 3.13"
2018-11-04T02:57:32.806Z," 3.10"
2018-11-04T03:02:29.343Z," 3.10"
2018-11-04T03:07:24.716Z," 3.10"
2018-11-04T03:12:20.312Z," 3.07"
2018-11-04T03:17:16.224Z," 3.07"
2018-11-04T03:22:11.947Z," 3.10"
2018-11-04T03:27:07.746Z," 3.05"
2018-11-04T03:32:03.430Z," 3.04"
2018-11-04T03:36:59.070Z," 3.00"
2018-11-04T03:41:54.626Z," 2.93"
2018-11-04T03:46:50.338Z," 2.87"
2018-11-04T03:51:45.960Z," 2.89"
2018-11-04T03:56:42.622Z," 3.03"
2018-11-04T04:01:38.178Z," 3.08"
2018-11-04T04:06:33.949Z," 2.98"
2018-11-04T04:11:30.187Z," 2.90"
2018-11-04T04:16:25.404Z," 2.90"
2018-11-04T04:21:20.988Z," 2.86"
2018-11-04T04:26:17.240Z," 2.95"
2018-11-04T04:31:13.712Z," 2.95"
2018-11-04T04:36:10.092Z," 2.85"
2018-11-04T04:41:05.520Z," 2.92"
2018-11-04T04:46:02.153Z," 2.87"
2018-11-04T04:50:57.582Z," 2.90"
2018-11-04T04:55:54.058Z," 2.93"
2018-11-04T05:00:51.376Z," 3.01"
2018-11-04T05:05:46.728Z," 3.05"
2018-11-04T05:10:42.266Z," 3.07"
2018-11-04T05:15:38.038Z," 3.18"
2018-11-04T05:20:35.399Z," 3.11"
2018-11-04T05:25:31.952Z," 3.19"
2018-11-04T05:30:27.428Z," 3.14"
2018-11-04T05:35:23.360Z," 3.34"
2018-11-04T05:40:19.010Z," 3.31"
2018-11-04T05:45:14.397Z," 3.26"
2018-11-04T05:50:10.169Z," 3.32"
2018-11-04T05:55:06.784Z," 3.34"
2018-11-04T06:00:02.198Z," 3.34"
2018-11-04T06:04:58.120Z," 3.41"
2018-11-04T06:09:54.524Z," 3.48"
2018-11-04T06:14:50.183Z," 3.50"
2018-11-04T06:19:45.962Z," 3.51"
2018-11-04T06:24:42.368Z," 3.55"
2018-11-04T06:29:38.142Z," 3.58"
2018-11-04T06:34:33.659Z," 3.68"
2018-11-04T06:39:29.370Z," 3.77"
2018-11-04T06:44:25.169Z," 3.68"
2018-11-04T06:49:20.989Z," 3.83"
2018-11-04T06:54:16.587Z," 3.98"
2018-11-04T06:59:13.294Z," 3.95"
2018-11-04T07:04:09.542Z," 3.95"
2018-11-04T07:09:05.309Z," 4.12"
2018-11-04T07:14:01.426Z," 4.17"
2018-11-04T07:18:56.927Z," 4.28"
2018-11-04T07:23:52.556Z," 4.35"
2018-11-04T07:28:48.282Z," 4.44"
2018-11-04T07:33:44.904Z," 4.52"
2018-11-04T07:38:40.348Z," 4.55"
2018-11-04T07:43:37.100Z," 4.62"
2018-11-04T07:48:33.016Z," 4.77"
2018-11-04T07:53:29.638Z," 4.93"
2018-11-04T07:58:24.811Z," 4.93"
2018-11-04T08:03:20.803Z," 5.07"
2018-11-04T08:08:16.866Z," 5.25"
2018-11-04T08:13:12.591Z," 5.15"
2018-11-04T08:18:08.268Z," 5.26"
2018-11-04T08:23:05.020Z," 5.28"
2018-11-04T08:28:01.101Z," 5.28"
2018-11-04T08:32:57.198Z," 5.20"
2018-11-04T08:37:52.855Z," 5.29"
2018-11-04T08:42:48.594Z," 5.39"
2018-11-04T08:47:44.260Z," 5.57"
2018-11-04T08:52:40.373Z," 5.56"
2018-11-04T08:57:36.028Z," 5.66"
2018-11-04T09:02:31.846Z," 5.86"
2018-11-04T09:07:27.642Z," 5.89"
2018-11-04T09:12:24.579Z," 6.04"
2018-11-04T09:17:20.074Z," 6.08"
2018-11-04T09:22:16.030Z," 6.27"
2018-11-04T09:27:12.943Z," 6.35"
2018-11-04T09:32:08.239Z," 6.54"
2018-11-04T09:37:04.179Z," 6.56"
2018-11-04T09:42:00.361Z," 6.64"
2018-11-04T09:46:56.238Z," 6.78"
2018-11-04T09:51:52.130Z," 6.97"
2018-11-04T09:56:48.887Z," 6.99"
2018-11-04T10:01:44.413Z," 7.13"
2018-11-04T10:06:40.493Z," 7.29"
2018-11-04T10:11:37.014Z," 7.56"
2018-11-04T10:16:32.744Z," 7.56"
2018-11-04T10:21:28.708Z," 7.61"
2018-11-04T10:26:24.487Z," 7.67"
2018-11-04T10:31:20.180Z," 7.85"
2018-11-04T10:36:15.625Z," 7.90"
2018-11-04T10:41:11.462Z," 7.98"
2018-11-04T10:46:08.624Z," 8.15"
2018-11-04T10:51:04.214Z," 8.31"
2018-11-04T10:56:00.059Z," 8.42"
2018-11-04T11:00:55.924Z," 8.49"
2018-11-04T11:05:51.734Z," 8.61"
2018-11-04T11:10:48.474Z," 8.48"
2018-11-04T11:15:44.097Z," 8.60"
2018-11-04T11:20:39.916Z," 8.64"
2018-11-04T11:25:36.936Z," 8.78"
2018-11-04T11:30:34.130Z," 8.74"
2018-11-04T11:35:30.769Z," 8.88"
2018-11-04T11:40:26.588Z," 8.87"
2018-11-04T11:45:22.370Z," 9.00"
2018-11-04T11:50:17.943Z," 9.08"
2018-11-04T11:55:13.951Z," 9.19"
2018-11-04T12:00:10.827Z," 9.26"
2018-11-04T12:05:06.507Z," 9.46"
2018-11-04T12:10:01.897Z," 9.46"
2018-11-04T12:14:58.559Z," 9.58"
2018-11-04T12:19:54.309Z," 9.68"
2018-11-04T12:24:50.999Z," 9.69"
2018-11-04T12:29:46.706Z," 9.73"
2018-11-04T12:34:43.189Z," 9.76"
2018-11-04T12:39:40.084Z," 9.89"
2018-11-04T12:44:36.491Z," 9.99"
2018-11-04T12:49:32.812Z,10.02
2018-11-04T12:54:28.394Z,10.12
2018-11-04T12:59:25.612Z,10.13
2018-11-04T13:04:22.056Z,10.26
2018-11-04T13:09:18.318Z,10.42
2018-11-04T13:14:13.808Z,10.42
2018-11-04T13:19:09.920Z,10.54
2018-11-04T13:24:06.367Z,10.53
2018-11-04T13:29:02.627Z,10.53
2018-11-04T13:33:58.072Z,10.67
2018-11-04T13:38:55.212Z,10.64
2018-11-04T13:43:51.184Z,10.79
2018-11-04T13:48:46.839Z,10.72
2018-11-04T13:53:42.457Z,10.79
2018-11-04T13:58:39.300Z,10.75
2018-11-04T14:03:35.769Z,10.86
2018-11-04T14:08:31.206Z,10.97
2018-11-04T14:13:26.872Z,10.94
2018-11-04T14:18:23.171Z,10.93
2018-11-04T14:23:18.862Z,10.92
2018-11-04T14:28:14.606Z,10.84
2018-11-04T14:33:10.236Z,10.97
2018-11-04T14:38:06.198Z,10.89
2018-11-04T14:43:01.793Z,10.79
2018-11-04T14:47:58.532Z,10.78
2018-11-04T14:52:53.966Z,10.79
2018-11-04T14:57:49.531Z,10.74
2018-11-04T15:02:46.375Z,10.74
2018-11-04T15:07:42.613Z,10.68
2018-11-04T15:12:38.251Z,10.61
2018-11-04T15:17:33.861Z,10.48
2018-11-04T15:22:29.454Z,10.59
2018-11-04T15:27:25.296Z,10.46
2018-11-04T15:32:21.784Z,10.44
2018-11-04T15:37:18.906Z,10.48
2018-11-04T15:42:14.536Z,10.46
2018-11-04T15:47:10.328Z,10.35
2018-11-04T15:52:06.376Z,10.31
2018-11-04T15:57:03.483Z,10.41
2018-11-04T16:01:58.702Z,10.37
2018-11-04T16:06:54.952Z,10.34
2018-11-04T16:11:50.706Z,10.34
2018-11-04T16:16:46.368Z,10.40
2018-11-04T16:21:43.282Z,10.35
2018-11-04T16:26:39.011Z,10.31
2018-11-04T16:31:34.769Z,10.42
2018-11-04T16:36:30.608Z,10.46
2018-11-04T16:41:26.407Z,10.41
2018-11-04T16:46:22.741Z,10.34
2018-11-04T16:51:18.407Z,10.37
2018-11-04T16:56:14.417Z,10.37
2018-11-04T17:01:10.955Z,10.38
2018-11-04T17:06:06.389Z,10.51
2018-11-04T17:11:03.411Z,10.48
2018-11-04T17:15:59.041Z,10.56
2018-11-04T17:20:55.064Z,10.46
2018-11-04T17:25:50.864Z,10.49
2018-11-04T17:30:47.699Z,10.53
2018-11-04T17:35:43.294Z,10.44
2018-11-04T17:40:40.080Z,10.49
2018-11-04T17:45:35.467Z,10.48
2018-11-04T17:50:31.271Z,10.51
2018-11-04T17:55:28.090Z,10.48
2018-11-04T18:00:23.857Z,10.42
2018-11-04T18:05:19.577Z,10.56
2018-11-04T18:10:16.427Z,10.42
2018-11-04T18:15:12.220Z,10.44
2018-11-04T18:20:07.686Z,10.48
2018-11-04T18:25:03.387Z,10.41
2018-11-04T18:30:00.155Z,10.31
2018-11-04T18:34:56.601Z,10.40
2018-11-04T18:39:52.676Z,10.31
2018-11-04T18:44:48.545Z,10.44
2018-11-04T18:49:44.042Z,10.38
2018-11-04T18:54:40.922Z,10.48
2018-11-04T18:59:37.611Z,10.42
2018-11-04T19:04:33.946Z,10.44
2018-11-04T19:09:30.765Z,10.44
2018-11-04T19:14:26.359Z,10.46
2018-11-04T19:19:21.942Z,10.46
2018-11-04T19:24:17.752Z,10.40
2018-11-04T19:29:13.493Z,10.34
2018-11-04T19:34:09.130Z,10.42
2018-11-04T19:39:06.270Z,10.44
2018-11-04T19:44:01.642Z,10.40
2018-11-04T19:48:57.278Z,10.35
2018-11-04T19:53:52.993Z,10.33
2018-11-04T19:58:48.785Z,10.35
2018-11-04T20:03:44.979Z,10.34
2018-11-04T20:08:40.765Z,10.37
2018-11-04T20:13:36.602Z,10.35
2018-11-04T20:18:33.727Z,10.30
2018-11-04T20:23:29.114Z,10.37
2018-11-04T20:28:24.915Z,10.54
2018-11-04T20:33:21.578Z,10.44
2018-11-04T20:38:18.039Z,10.33
2018-11-04T20:43:14.572Z,10.35
2018-11-04T20:48:12.058Z,10.35
2018-11-04T20:53:08.056Z,10.30
2018-11-04T20:58:04.226Z,10.31
2018-11-04T21:03:00.862Z,10.12
2018-11-04T21:07:56.478Z,10.15
2018-11-04T21:12:52.228Z,10.09
2018-11-04T21:17:47.921Z,10.04
2018-11-04T21:22:43.595Z,10.02
2018-11-04T21:27:39.269Z," 9.79"
2018-11-04T21:32:35.840Z," 9.73"
2018-11-04T21:37:31.938Z," 9.73"
2018-11-04T21:42:28.001Z," 9.61"
2018-11-04T21:47:23.838Z," 9.50"
2018-11-04T21:52:19.603Z," 9.44"
2018-11-04T21:57:15.221Z," 9.36"
2018-11-04T22:02:10.840Z," 9.34"
2018-11-04T22:07:07.077Z," 9.18"
2018-11-04T22:12:02.726Z," 9.06"
2018-11-04T22:16:59.760Z," 9.10"
2018-11-04T22:21:55.353Z," 8.85"
2018-11-04T22:26:51.055Z," 8.84"
2018-11-04T22:31:47.709Z," 8.71"
2018-11-04T22:36:43.322Z," 8.58"
2018-11-04T22:41:38.958Z," 8.63"
2018-11-04T22:46:34.675Z," 8.53"
2018-11-04T22:51:31.653Z," 8.51"
2018-11-04T22:56:27.198Z," 8.51"
2018-11-04T23:01:23.751Z," 8.36"
2018-11-04T23:06:19.595Z," 8.31"
2018-11-04T23:11:15.315Z," 8.26"
2018-11-04T23:16:11.911Z," 8.28"
2018-11-04T23:21:07.236Z," 8.19"
2018-11-04T23:26:02.906Z," 8.28"
2018-11-04T23:30:58.761Z," 8.18"
2018-11-04T23:35:54.399Z," 8.16"
2018-11-04T23:40:51.439Z," 8.23"
2018-11-04T23:45:46.863Z," 8.23"
2018-11-04T23:50:42.369Z," 8.12"
2018-11-04T23:55:38.079Z," 8.13"
